sensor_id;sensor_type;location;lat;lon;timestamp;noise_LAeq;noise_LA_min;noise_LA_max;noise_LA01;noise_LA95
81493;Laerm;70900;51.798;10.954;2023-10-19T00:01:07;39.02;33.62;55.57;;
81493;Laerm;70900;51.798;10.954;2023-10-19T00:03:33;40.90;34.33;49.88;;
81493;Laerm;70900;51.798;10.954;2023-10-19T00:05:59;39.11;35.70;44.85;;
81493;Laerm;70900;51.798;10.954;2023-10-19T00:08:24;44.26;36.47;49.34;;
81493;Laerm;70900;51.798;10.954;2023-10-19T00:10:51;46.65;37.67;70.44;;
81493;Laerm;70900;51.798;10.954;2023-10-19T00:13:35;39.09;34.15;47.97;;
81493;Laerm;70900;51.798;10.954;2023-10-19T00:16:01;39.70;32.64;45.99;;
81493;Laerm;70900;51.798;10.954;2023-10-19T00:18:27;42.88;37.52;48.37;;
81493;Laerm;70900;51.798;10.954;2023-10-19T00:20:53;41.61;37.17;47.02;;
81493;Laerm;70900;51.798;10.954;2023-10-19T00:23:22;43.01;38.38;48.50;;
81493;Laerm;70900;51.798;10.954;2023-10-19T00:26:00;41.74;38.31;49.13;;
81493;Laerm;70900;51.798;10.954;2023-10-19T00:28:33;39.71;36.78;47.19;;
81493;Laerm;70900;51.798;10.954;2023-10-19T00:31:00;44.43;38.11;68.72;;
81493;Laerm;70900;51.798;10.954;2023-10-19T00:33:29;41.44;37.31;48.04;;
81493;Laerm;70900;51.798;10.954;2023-10-19T00:35:58;38.61;35.67;46.86;;
81493;Laerm;70900;51.798;10.954;2023-10-19T00:38:35;38.49;34.75;47.98;;
81493;Laerm;70900;51.798;10.954;2023-10-19T00:41:01;39.40;35.36;46.43;;
81493;Laerm;70900;51.798;10.954;2023-10-19T00:43:36;37.65;33.62;47.49;;
81493;Laerm;70900;51.798;10.954;2023-10-19T00:46:17;38.42;33.56;51.60;;
81493;Laerm;70900;51.798;10.954;2023-10-19T00:48:49;36.87;33.95;43.37;;
81493;Laerm;70900;51.798;10.954;2023-10-19T00:51:16;37.67;33.59;49.93;;
81493;Laerm;70900;51.798;10.954;2023-10-19T00:53:57;38.78;33.93;48.05;;
81493;Laerm;70900;51.798;10.954;2023-10-19T00:56:24;38.91;33.12;58.27;;
81493;Laerm;70900;51.798;10.954;2023-10-19T00:58:56;37.69;34.21;49.11;;
81493;Laerm;70900;51.798;10.954;2023-10-19T01:01:26;42.51;35.57;57.80;;
81493;Laerm;70900;51.798;10.954;2023-10-19T01:03:53;40.42;35.03;45.55;;
81493;Laerm;70900;51.798;10.954;2023-10-19T01:06:22;43.96;40.86;48.20;;
81493;Laerm;70900;51.798;10.954;2023-10-19T01:08:47;44.00;41.48;49.58;;
81493;Laerm;70900;51.798;10.954;2023-10-19T01:11:16;51.41;41.08;68.55;;
81493;Laerm;70900;51.798;10.954;2023-10-19T01:13:45;45.56;42.32;50.38;;
81493;Laerm;70900;51.798;10.954;2023-10-19T01:16:12;46.11;43.74;51.98;;
81493;Laerm;70900;51.798;10.954;2023-10-19T01:18:45;46.70;44.50;53.62;;
81493;Laerm;70900;51.798;10.954;2023-10-19T01:21:11;46.34;44.46;52.52;;
81493;Laerm;70900;51.798;10.954;2023-10-19T01:23:37;46.32;43.76;53.14;;
81493;Laerm;70900;51.798;10.954;2023-10-19T01:26:04;47.11;44.32;56.08;;
81493;Laerm;70900;51.798;10.954;2023-10-19T01:28:34;48.79;46.29;56.30;;
81493;Laerm;70900;51.798;10.954;2023-10-19T01:31:05;48.48;46.85;56.32;;
81493;Laerm;70900;51.798;10.954;2023-10-19T01:33:31;50.32;47.70;57.80;;
81493;Laerm;70900;51.798;10.954;2023-10-19T01:35:59;49.67;46.58;58.91;;
81493;Laerm;70900;51.798;10.954;2023-10-19T01:38:37;47.81;45.69;53.46;;
81493;Laerm;70900;51.798;10.954;2023-10-19T01:41:03;47.28;44.91;53.70;;
81493;Laerm;70900;51.798;10.954;2023-10-19T01:43:32;48.20;45.66;54.94;;
81493;Laerm;70900;51.798;10.954;2023-10-19T01:45:58;47.60;43.24;56.26;;
81493;Laerm;70900;51.798;10.954;2023-10-19T01:48:29;45.29;42.97;53.70;;
81493;Laerm;70900;51.798;10.954;2023-10-19T01:50:59;46.96;43.30;71.81;;
81493;Laerm;70900;51.798;10.954;2023-10-19T01:53:24;53.88;44.00;71.61;;
81493;Laerm;70900;51.798;10.954;2023-10-19T01:55:50;44.93;42.28;53.15;;
81493;Laerm;70900;51.798;10.954;2023-10-19T01:58:22;45.08;42.64;53.68;;
81493;Laerm;70900;51.798;10.954;2023-10-19T02:00:50;44.46;41.64;51.41;;
81493;Laerm;70900;51.798;10.954;2023-10-19T02:03:15;44.63;42.66;50.09;;
81493;Laerm;70900;51.798;10.954;2023-10-19T02:05:41;47.72;44.72;53.65;;
81493;Laerm;70900;51.798;10.954;2023-10-19T02:08:08;47.95;46.04;57.60;;
81493;Laerm;70900;51.798;10.954;2023-10-19T02:10:34;47.70;45.13;53.83;;
81493;Laerm;70900;51.798;10.954;2023-10-19T02:13:00;47.48;43.98;52.73;;
81493;Laerm;70900;51.798;10.954;2023-10-19T02:15:28;46.84;41.82;67.75;;
81493;Laerm;70900;51.798;10.954;2023-10-19T02:17:54;45.74;42.08;52.02;;
81493;Laerm;70900;51.798;10.954;2023-10-19T02:20:20;47.23;44.69;51.48;;
81493;Laerm;70900;51.798;10.954;2023-10-19T02:22:49;48.06;45.73;53.14;;
81493;Laerm;70900;51.798;10.954;2023-10-19T02:25:17;52.77;46.57;58.99;;
81493;Laerm;70900;51.798;10.954;2023-10-19T02:27:42;56.08;53.65;60.01;;
81493;Laerm;70900;51.798;10.954;2023-10-19T02:30:10;55.31;51.90;60.13;;
81493;Laerm;70900;51.798;10.954;2023-10-19T02:32:36;55.64;52.56;60.56;;
81493;Laerm;70900;51.798;10.954;2023-10-19T02:35:02;52.57;47.68;58.69;;
81493;Laerm;70900;51.798;10.954;2023-10-19T02:37:28;49.44;46.49;58.37;;
81493;Laerm;70900;51.798;10.954;2023-10-19T02:39:53;47.97;45.47;53.99;;
81493;Laerm;70900;51.798;10.954;2023-10-19T02:42:19;48.24;46.09;53.94;;
81493;Laerm;70900;51.798;10.954;2023-10-19T02:44:47;47.86;45.39;53.60;;
81493;Laerm;70900;51.798;10.954;2023-10-19T02:47:12;51.75;48.52;56.07;;
81493;Laerm;70900;51.798;10.954;2023-10-19T02:49:38;51.81;49.73;57.34;;
81493;Laerm;70900;51.798;10.954;2023-10-19T02:52:04;52.35;50.01;60.88;;
81493;Laerm;70900;51.798;10.954;2023-10-19T02:54:30;59.53;49.55;76.71;;
81493;Laerm;70900;51.798;10.954;2023-10-19T02:56:58;51.71;49.02;59.03;;
81493;Laerm;70900;51.798;10.954;2023-10-19T02:59:25;51.27;48.56;59.66;;
81493;Laerm;70900;51.798;10.954;2023-10-19T03:01:54;51.14;47.94;60.10;;
81493;Laerm;70900;51.798;10.954;2023-10-19T03:04:28;49.28;46.39;55.91;;
81493;Laerm;70900;51.798;10.954;2023-10-19T03:06:54;48.53;46.09;54.37;;
81493;Laerm;70900;51.798;10.954;2023-10-19T03:09:21;51.95;47.92;55.47;;
81493;Laerm;70900;51.798;10.954;2023-10-19T03:11:52;52.74;50.58;60.71;;
81493;Laerm;70900;51.798;10.954;2023-10-19T03:14:19;52.84;48.95;58.51;;
81493;Laerm;70900;51.798;10.954;2023-10-19T03:16:45;51.37;48.37;57.87;;
81493;Laerm;70900;51.798;10.954;2023-10-19T03:19:11;53.12;50.78;64.33;;
81493;Laerm;70900;51.798;10.954;2023-10-19T03:21:38;58.74;53.83;69.33;;
81493;Laerm;70900;51.798;10.954;2023-10-19T03:24:13;57.41;53.90;62.15;;
81493;Laerm;70900;51.798;10.954;2023-10-19T03:26:48;56.63;53.80;61.66;;
81493;Laerm;70900;51.798;10.954;2023-10-19T03:29:14;56.17;53.02;61.77;;
81493;Laerm;70900;51.798;10.954;2023-10-19T03:31:41;53.19;49.00;63.31;;
81493;Laerm;70900;51.798;10.954;2023-10-19T03:34:12;56.84;47.87;69.53;;
81493;Laerm;70900;51.798;10.954;2023-10-19T03:36:38;54.08;50.05;68.62;;
81493;Laerm;70900;51.798;10.954;2023-10-19T03:39:04;58.66;50.66;72.58;;
81493;Laerm;70900;51.798;10.954;2023-10-19T03:41:40;50.79;47.25;60.04;;
81493;Laerm;70900;51.798;10.954;2023-10-19T03:44:09;50.21;47.55;57.40;;
81493;Laerm;70900;51.798;10.954;2023-10-19T03:46:50;61.17;47.80;74.03;;
81493;Laerm;70900;51.798;10.954;2023-10-19T03:49:21;51.98;46.35;65.87;;
81493;Laerm;70900;51.798;10.954;2023-10-19T03:51:47;50.11;47.83;53.97;;
81493;Laerm;70900;51.798;10.954;2023-10-19T03:54:28;57.75;48.24;71.73;;
81493;Laerm;70900;51.798;10.954;2023-10-19T03:56:54;50.16;48.43;54.89;;
81493;Laerm;70900;51.798;10.954;2023-10-19T03:59:20;58.28;48.73;73.03;;
81493;Laerm;70900;51.798;10.954;2023-10-19T04:01:46;58.46;50.79;74.69;;
81493;Laerm;70900;51.798;10.954;2023-10-19T04:04:12;57.03;50.39;71.92;;
81493;Laerm;70900;51.798;10.954;2023-10-19T04:06:39;60.89;54.07;73.77;;
81493;Laerm;70900;51.798;10.954;2023-10-19T04:09:05;58.62;54.26;69.53;;
81493;Laerm;70900;51.798;10.954;2023-10-19T04:11:31;62.39;53.86;78.66;;
81493;Laerm;70900;51.798;10.954;2023-10-19T04:14:13;57.55;53.35;61.85;;
81493;Laerm;70900;51.798;10.954;2023-10-19T04:16:40;57.98;53.32;72.32;;
81493;Laerm;70900;51.798;10.954;2023-10-19T04:19:08;62.48;54.35;76.14;;
81493;Laerm;70900;51.798;10.954;2023-10-19T04:21:34;61.04;55.96;74.84;;
81493;Laerm;70900;51.798;10.954;2023-10-19T04:24:03;57.79;54.55;62.01;;
81493;Laerm;70900;51.798;10.954;2023-10-19T04:26:29;63.37;54.99;77.98;;
81493;Laerm;70900;51.798;10.954;2023-10-19T04:29:02;59.41;51.47;73.68;;
81493;Laerm;70900;51.798;10.954;2023-10-19T04:31:34;61.14;48.78;75.13;;
81493;Laerm;70900;51.798;10.954;2023-10-19T04:34:02;61.93;46.73;79.24;;
81493;Laerm;70900;51.798;10.954;2023-10-19T04:36:32;55.08;47.35;69.24;;
81493;Laerm;70900;51.798;10.954;2023-10-19T04:38:58;57.30;49.76;71.76;;
81493;Laerm;70900;51.798;10.954;2023-10-19T04:41:25;58.74;46.84;72.39;;
81493;Laerm;70900;51.798;10.954;2023-10-19T04:43:52;58.95;45.44;75.10;;
81493;Laerm;70900;51.798;10.954;2023-10-19T04:46:19;57.48;44.78;74.41;;
81493;Laerm;70900;51.798;10.954;2023-10-19T04:48:44;45.66;41.64;52.73;;
81493;Laerm;70900;51.798;10.954;2023-10-19T04:51:10;56.64;42.70;71.45;;
81493;Laerm;70900;51.798;10.954;2023-10-19T04:53:36;58.00;42.63;72.52;;
81493;Laerm;70900;51.798;10.954;2023-10-19T04:56:02;62.30;44.35;78.53;;
81493;Laerm;70900;51.798;10.954;2023-10-19T04:58:28;61.59;45.54;73.85;;
81493;Laerm;70900;51.798;10.954;2023-10-19T05:00:54;57.08;42.79;69.91;;
81493;Laerm;70900;51.798;10.954;2023-10-19T05:03:19;60.98;41.16;76.35;;
81493;Laerm;70900;51.798;10.954;2023-10-19T05:05:45;54.65;42.58;67.44;;
81493;Laerm;70900;51.798;10.954;2023-10-19T05:08:11;58.53;41.80;74.59;;
81493;Laerm;70900;51.798;10.954;2023-10-19T05:10:36;56.57;43.37;69.02;;
81493;Laerm;70900;51.798;10.954;2023-10-19T05:13:02;58.04;41.13;69.06;;
81493;Laerm;70900;51.798;10.954;2023-10-19T05:15:28;58.19;41.73;69.77;;
81493;Laerm;70900;51.798;10.954;2023-10-19T05:17:53;58.02;40.74;72.21;;
81493;Laerm;70900;51.798;10.954;2023-10-19T05:20:19;54.14;40.80;70.71;;
81493;Laerm;70900;51.798;10.954;2023-10-19T05:22:46;57.72;43.08;69.27;;
81493;Laerm;70900;51.798;10.954;2023-10-19T05:25:11;44.69;40.75;52.55;;
81493;Laerm;70900;51.798;10.954;2023-10-19T05:27:37;54.10;42.63;67.39;;
81493;Laerm;70900;51.798;10.954;2023-10-19T05:30:03;60.66;42.53;74.13;;
81493;Laerm;70900;51.798;10.954;2023-10-19T05:32:29;73.77;60.40;82.17;;
81493;Laerm;70900;51.798;10.954;2023-10-19T05:34:55;54.93;45.97;66.65;;
81493;Laerm;70900;51.798;10.954;2023-10-19T05:37:22;54.18;41.52;69.09;;
81493;Laerm;70900;51.798;10.954;2023-10-19T05:39:47;58.45;41.50;70.64;;
81493;Laerm;70900;51.798;10.954;2023-10-19T05:42:14;55.84;41.34;71.21;;
81493;Laerm;70900;51.798;10.954;2023-10-19T05:44:39;51.73;40.43;66.62;;
81493;Laerm;70900;51.798;10.954;2023-10-19T05:47:05;45.47;41.97;49.13;;
81493;Laerm;70900;51.798;10.954;2023-10-19T05:49:32;52.74;44.55;69.19;;
81493;Laerm;70900;51.798;10.954;2023-10-19T05:51:57;75.66;51.40;86.59;;
81493;Laerm;70900;51.798;10.954;2023-10-19T05:54:23;66.81;43.98;78.30;;
81493;Laerm;70900;51.798;10.954;2023-10-19T05:56:49;57.07;42.58;72.88;;
81493;Laerm;70900;51.798;10.954;2023-10-19T05:59:14;44.37;41.25;51.02;;
81493;Laerm;70900;51.798;10.954;2023-10-19T06:01:41;63.93;41.94;75.74;;
81493;Laerm;70900;51.798;10.954;2023-10-19T06:04:06;61.15;41.16;73.82;;
81493;Laerm;70900;51.798;10.954;2023-10-19T06:06:31;43.71;40.89;51.37;;
81493;Laerm;70900;51.798;10.954;2023-10-19T06:08:57;58.19;42.94;72.48;;
81493;Laerm;70900;51.798;10.954;2023-10-19T06:11:23;55.34;40.98;70.23;;
81493;Laerm;70900;51.798;10.954;2023-10-19T06:13:48;61.56;42.38;78.11;;
81493;Laerm;70900;51.798;10.954;2023-10-19T06:16:14;56.15;42.50;72.13;;
81493;Laerm;70900;51.798;10.954;2023-10-19T06:18:39;64.80;44.96;78.67;;
81493;Laerm;70900;51.798;10.954;2023-10-19T06:21:05;66.32;42.78;82.63;;
81493;Laerm;70900;51.798;10.954;2023-10-19T06:23:30;61.64;44.80;73.05;;
81493;Laerm;70900;51.798;10.954;2023-10-19T06:25:59;54.85;42.16;68.51;;
81493;Laerm;70900;51.798;10.954;2023-10-19T06:28:29;46.45;42.67;56.14;;
81493;Laerm;70900;51.798;10.954;2023-10-19T06:30:54;55.25;42.26;69.10;;
81493;Laerm;70900;51.798;10.954;2023-10-19T06:33:19;59.48;42.11;73.32;;
81493;Laerm;70900;51.798;10.954;2023-10-19T06:35:48;54.61;40.10;68.80;;
81493;Laerm;70900;51.798;10.954;2023-10-19T06:38:13;53.70;41.14;68.78;;
81493;Laerm;70900;51.798;10.954;2023-10-19T06:40:39;55.41;40.81;70.61;;
81493;Laerm;70900;51.798;10.954;2023-10-19T06:43:05;57.08;42.11;67.79;;
81493;Laerm;70900;51.798;10.954;2023-10-19T06:45:31;58.34;40.91;71.10;;
81493;Laerm;70900;51.798;10.954;2023-10-19T06:47:57;53.83;42.62;66.95;;
81493;Laerm;70900;51.798;10.954;2023-10-19T06:50:23;57.36;42.87;69.89;;
81493;Laerm;70900;51.798;10.954;2023-10-19T06:52:48;56.83;42.32;69.58;;
81493;Laerm;70900;51.798;10.954;2023-10-19T06:55:15;58.38;42.19;71.67;;
81493;Laerm;70900;51.798;10.954;2023-10-19T06:57:50;59.42;41.90;72.23;;
81493;Laerm;70900;51.798;10.954;2023-10-19T07:00:17;61.07;43.93;73.14;;
81493;Laerm;70900;51.798;10.954;2023-10-19T07:02:49;59.57;42.95;70.40;;
81493;Laerm;70900;51.798;10.954;2023-10-19T07:05:16;50.86;42.61;63.22;;
81493;Laerm;70900;51.798;10.954;2023-10-19T07:07:47;55.75;42.13;68.50;;
81493;Laerm;70900;51.798;10.954;2023-10-19T07:10:14;65.83;43.18;82.45;;
81493;Laerm;70900;51.798;10.954;2023-10-19T07:12:43;54.00;43.60;68.79;;
81493;Laerm;70900;51.798;10.954;2023-10-19T07:15:09;49.33;42.46;62.34;;
81493;Laerm;70900;51.798;10.954;2023-10-19T07:17:39;59.82;42.94;73.89;;
81493;Laerm;70900;51.798;10.954;2023-10-19T07:20:05;59.19;43.49;75.08;;
81493;Laerm;70900;51.798;10.954;2023-10-19T07:22:32;53.85;43.00;67.79;;
81493;Laerm;70900;51.798;10.954;2023-10-19T07:24:57;58.78;43.42;72.87;;
81493;Laerm;70900;51.798;10.954;2023-10-19T07:27:23;59.24;42.21;68.33;;
81493;Laerm;70900;51.798;10.954;2023-10-19T07:29:48;54.29;42.99;68.39;;
81493;Laerm;70900;51.798;10.954;2023-10-19T07:32:13;52.17;43.28;69.03;;
81493;Laerm;70900;51.798;10.954;2023-10-19T07:34:42;61.15;42.85;75.83;;
81493;Laerm;70900;51.798;10.954;2023-10-19T07:37:09;59.15;45.50;70.59;;
81493;Laerm;70900;51.798;10.954;2023-10-19T07:39:40;53.93;43.34;68.73;;
81493;Laerm;70900;51.798;10.954;2023-10-19T07:42:07;53.99;41.33;69.18;;
81493;Laerm;70900;51.798;10.954;2023-10-19T07:44:33;57.38;43.90;70.45;;
81493;Laerm;70900;51.798;10.954;2023-10-19T07:46:58;57.75;44.54;70.20;;
81493;Laerm;70900;51.798;10.954;2023-10-19T07:49:23;55.39;43.83;67.84;;
81493;Laerm;70900;51.798;10.954;2023-10-19T07:51:50;64.30;45.29;79.71;;
81493;Laerm;70900;51.798;10.954;2023-10-19T07:54:16;56.31;44.63;70.92;;
81493;Laerm;70900;51.798;10.954;2023-10-19T07:56:42;60.96;45.33;73.39;;
81493;Laerm;70900;51.798;10.954;2023-10-19T07:59:08;54.43;44.00;67.48;;
81493;Laerm;70900;51.798;10.954;2023-10-19T08:01:34;57.93;43.50;74.21;;
81493;Laerm;70900;51.798;10.954;2023-10-19T08:03:59;58.03;43.79;69.99;;
81493;Laerm;70900;51.798;10.954;2023-10-19T08:06:25;56.22;42.73;69.09;;
81493;Laerm;70900;51.798;10.954;2023-10-19T08:08:51;54.61;43.02;66.16;;
81493;Laerm;70900;51.798;10.954;2023-10-19T08:11:17;57.89;41.69;69.31;;
81493;Laerm;70900;51.798;10.954;2023-10-19T08:13:42;60.63;46.11;73.61;;
81493;Laerm;70900;51.798;10.954;2023-10-19T08:16:08;55.23;44.19;69.66;;
81493;Laerm;70900;51.798;10.954;2023-10-19T08:18:34;54.62;44.17;66.04;;
81493;Laerm;70900;51.798;10.954;2023-10-19T08:21:03;54.27;43.18;67.41;;
81493;Laerm;70900;51.798;10.954;2023-10-19T08:23:28;57.66;45.33;67.63;;
81493;Laerm;70900;51.798;10.954;2023-10-19T08:25:56;58.39;44.98;67.84;;
81493;Laerm;70900;51.798;10.954;2023-10-19T08:28:22;58.63;44.87;69.49;;
81493;Laerm;70900;51.798;10.954;2023-10-19T08:30:48;56.31;45.58;68.77;;
81493;Laerm;70900;51.798;10.954;2023-10-19T08:33:23;59.23;44.63;75.04;;
81493;Laerm;70900;51.798;10.954;2023-10-19T08:35:51;54.32;43.40;66.99;;
81493;Laerm;70900;51.798;10.954;2023-10-19T08:38:16;58.00;43.55;73.24;;
81493;Laerm;70900;51.798;10.954;2023-10-19T08:40:42;55.71;45.21;73.90;;
81493;Laerm;70900;51.798;10.954;2023-10-19T08:43:07;59.47;44.70;70.79;;
81493;Laerm;70900;51.798;10.954;2023-10-19T08:45:38;56.04;44.12;67.09;;
81493;Laerm;70900;51.798;10.954;2023-10-19T08:48:03;54.97;42.43;67.33;;
81493;Laerm;70900;51.798;10.954;2023-10-19T08:50:30;57.40;42.02;67.53;;
81493;Laerm;70900;51.798;10.954;2023-10-19T08:52:56;61.06;46.40;77.31;;
81493;Laerm;70900;51.798;10.954;2023-10-19T08:55:22;55.05;42.20;69.60;;
81493;Laerm;70900;51.798;10.954;2023-10-19T08:57:48;59.56;41.83;68.16;;
81493;Laerm;70900;51.798;10.954;2023-10-19T09:00:14;56.68;43.53;66.86;;
81493;Laerm;70900;51.798;10.954;2023-10-19T09:02:42;51.62;42.13;64.62;;
81493;Laerm;70900;51.798;10.954;2023-10-19T09:05:08;55.79;43.12;67.28;;
81493;Laerm;70900;51.798;10.954;2023-10-19T09:07:34;59.09;43.43;71.74;;
81493;Laerm;70900;51.798;10.954;2023-10-19T09:09:59;58.61;42.35;69.83;;
81493;Laerm;70900;51.798;10.954;2023-10-19T09:12:26;50.91;40.78;61.74;;
81493;Laerm;70900;51.798;10.954;2023-10-19T09:14:52;58.01;43.35;69.78;;
81493;Laerm;70900;51.798;10.954;2023-10-19T09:17:29;55.01;42.00;69.40;;
81493;Laerm;70900;51.798;10.954;2023-10-19T09:19:57;54.82;41.02;69.94;;
81493;Laerm;70900;51.798;10.954;2023-10-19T09:22:24;60.50;42.66;74.38;;
81493;Laerm;70900;51.798;10.954;2023-10-19T09:24:50;61.32;42.83;75.40;;
81493;Laerm;70900;51.798;10.954;2023-10-19T09:27:16;55.68;41.46;69.92;;
81493;Laerm;70900;51.798;10.954;2023-10-19T09:29:42;57.76;42.25;69.82;;
81493;Laerm;70900;51.798;10.954;2023-10-19T09:32:08;55.04;44.24;66.60;;
81493;Laerm;70900;51.798;10.954;2023-10-19T09:34:34;60.81;44.24;76.62;;
81493;Laerm;70900;51.798;10.954;2023-10-19T09:36:59;58.67;44.22;69.98;;
81493;Laerm;70900;51.798;10.954;2023-10-19T09:39:28;55.49;44.26;67.96;;
81493;Laerm;70900;51.798;10.954;2023-10-19T09:42:05;55.25;43.90;67.52;;
81493;Laerm;70900;51.798;10.954;2023-10-19T09:44:36;57.05;42.69;69.54;;
81493;Laerm;70900;51.798;10.954;2023-10-19T09:47:04;61.58;41.50;72.96;;
81493;Laerm;70900;51.798;10.954;2023-10-19T09:49:34;54.88;42.56;69.75;;
81493;Laerm;70900;51.798;10.954;2023-10-19T09:52:00;60.96;43.24;78.14;;
81493;Laerm;70900;51.798;10.954;2023-10-19T09:57:22;56.42;40.88;69.26;;
81493;Laerm;70900;51.798;10.954;2023-10-19T09:59:56;57.71;40.30;70.73;;
81493;Laerm;70900;51.798;10.954;2023-10-19T10:02:23;57.03;41.26;73.22;;
81493;Laerm;70900;51.798;10.954;2023-10-19T10:04:49;57.35;39.36;70.84;;
81493;Laerm;70900;51.798;10.954;2023-10-19T10:07:14;60.41;41.81;71.58;;
81493;Laerm;70900;51.798;10.954;2023-10-19T10:09:41;54.68;43.88;68.32;;
81493;Laerm;70900;51.798;10.954;2023-10-19T10:12:15;57.39;40.65;73.91;;
81493;Laerm;70900;51.798;10.954;2023-10-19T10:14:41;50.41;41.49;62.75;;
81493;Laerm;70900;51.798;10.954;2023-10-19T10:17:17;45.75;41.41;55.64;;
81493;Laerm;70900;51.798;10.954;2023-10-19T10:19:44;57.08;40.57;69.17;;
81493;Laerm;70900;51.798;10.954;2023-10-19T10:22:10;55.71;40.67;74.36;;
81493;Laerm;70900;51.798;10.954;2023-10-19T10:24:42;52.63;40.41;66.69;;
81493;Laerm;70900;51.798;10.954;2023-10-19T10:27:08;52.21;41.05;66.54;;
81493;Laerm;70900;51.798;10.954;2023-10-19T10:29:35;53.32;42.31;65.88;;
81493;Laerm;70900;51.798;10.954;2023-10-19T10:32:00;51.74;41.56;64.51;;
81493;Laerm;70900;51.798;10.954;2023-10-19T10:37:07;61.12;40.79;78.36;;
81493;Laerm;70900;51.798;10.954;2023-10-19T10:39:36;51.37;40.90;62.09;;
81493;Laerm;70900;51.798;10.954;2023-10-19T10:42:03;59.40;44.47;75.00;;
81493;Laerm;70900;51.798;10.954;2023-10-19T10:47:00;55.39;43.45;68.83;;
81493;Laerm;70900;51.798;10.954;2023-10-19T10:49:26;60.49;48.49;72.47;;
81493;Laerm;70900;51.798;10.954;2023-10-19T10:51:53;57.18;48.58;67.84;;
81493;Laerm;70900;51.798;10.954;2023-10-19T10:54:21;56.26;43.64;67.62;;
81493;Laerm;70900;51.798;10.954;2023-10-19T10:56:46;54.78;43.56;70.51;;
81493;Laerm;70900;51.798;10.954;2023-10-19T10:59:14;56.11;42.67;66.90;;
81493;Laerm;70900;51.798;10.954;2023-10-19T11:01:40;52.11;41.54;62.99;;
81493;Laerm;70900;51.798;10.954;2023-10-19T11:04:10;61.11;46.90;69.71;;
81493;Laerm;70900;51.798;10.954;2023-10-19T11:06:52;58.70;43.18;68.63;;
81493;Laerm;70900;51.798;10.954;2023-10-19T11:09:20;49.17;41.65;60.95;;
81493;Laerm;70900;51.798;10.954;2023-10-19T11:11:47;74.18;43.94;86.83;;
81493;Laerm;70900;51.798;10.954;2023-10-19T11:14:12;53.82;41.33;67.21;;
81493;Laerm;70900;51.798;10.954;2023-10-19T11:16:38;51.20;42.41;66.17;;
81493;Laerm;70900;51.798;10.954;2023-10-19T11:19:04;49.57;42.75;60.88;;
81493;Laerm;70900;51.798;10.954;2023-10-19T11:21:30;54.13;40.05;66.27;;
81493;Laerm;70900;51.798;10.954;2023-10-19T11:23:55;44.92;39.68;62.33;;
81493;Laerm;70900;51.798;10.954;2023-10-19T11:26:23;54.79;40.70;67.54;;
81493;Laerm;70900;51.798;10.954;2023-10-19T11:28:56;53.61;41.50;67.13;;
81493;Laerm;70900;51.798;10.954;2023-10-19T11:31:23;51.55;41.57;62.99;;
81493;Laerm;70900;51.798;10.954;2023-10-19T11:33:49;58.14;41.28;75.13;;
81493;Laerm;70900;51.798;10.954;2023-10-19T11:36:15;58.12;40.16;71.25;;
81493;Laerm;70900;51.798;10.954;2023-10-19T11:38:41;55.13;42.28;67.25;;
81493;Laerm;70900;51.798;10.954;2023-10-19T11:41:07;60.32;43.00;78.70;;
81493;Laerm;70900;51.798;10.954;2023-10-19T11:43:33;55.47;43.95;65.83;;
81493;Laerm;70900;51.798;10.954;2023-10-19T11:45:59;54.50;44.28;67.28;;
81493;Laerm;70900;51.798;10.954;2023-10-19T11:48:25;60.97;42.73;75.79;;
81493;Laerm;70900;51.798;10.954;2023-10-19T11:50:51;57.69;42.36;76.01;;
81493;Laerm;70900;51.798;10.954;2023-10-19T11:53:16;52.57;41.44;64.87;;
81493;Laerm;70900;51.798;10.954;2023-10-19T11:55:42;54.63;41.24;65.86;;
81493;Laerm;70900;51.798;10.954;2023-10-19T11:58:08;55.29;41.35;69.51;;
81493;Laerm;70900;51.798;10.954;2023-10-19T12:00:36;53.00;38.99;68.41;;
81493;Laerm;70900;51.798;10.954;2023-10-19T12:03:03;64.78;42.54;81.21;;
81493;Laerm;70900;51.798;10.954;2023-10-19T12:05:29;53.73;40.26;69.27;;
81493;Laerm;70900;51.798;10.954;2023-10-19T12:07:54;56.52;39.11;69.04;;
81493;Laerm;70900;51.798;10.954;2023-10-19T12:10:21;53.93;37.69;69.77;;
81493;Laerm;70900;51.798;10.954;2023-10-19T12:12:53;54.34;40.62;68.84;;
81493;Laerm;70900;51.798;10.954;2023-10-19T12:15:18;56.04;38.87;67.27;;
81493;Laerm;70900;51.798;10.954;2023-10-19T12:17:47;53.59;39.08;66.15;;
81493;Laerm;70900;51.798;10.954;2023-10-19T12:20:13;53.71;41.64;64.03;;
81493;Laerm;70900;51.798;10.954;2023-10-19T12:22:39;55.41;40.54;71.53;;
81493;Laerm;70900;51.798;10.954;2023-10-19T12:25:06;58.05;42.72;69.22;;
81493;Laerm;70900;51.798;10.954;2023-10-19T12:27:31;56.89;41.48;68.80;;
81493;Laerm;70900;51.798;10.954;2023-10-19T12:29:56;58.83;41.67;71.79;;
81493;Laerm;70900;51.798;10.954;2023-10-19T12:32:24;52.30;41.06;61.76;;
81493;Laerm;70900;51.798;10.954;2023-10-19T12:34:51;62.08;44.26;77.56;;
81493;Laerm;70900;51.798;10.954;2023-10-19T12:37:22;59.21;41.30;67.16;;
81493;Laerm;70900;51.798;10.954;2023-10-19T12:39:49;56.62;40.53;66.28;;
81493;Laerm;70900;51.798;10.954;2023-10-19T12:42:14;56.93;40.62;68.04;;
81493;Laerm;70900;51.798;10.954;2023-10-19T12:44:40;57.23;42.00;67.79;;
81493;Laerm;70900;51.798;10.954;2023-10-19T12:47:09;56.86;41.79;66.67;;
81493;Laerm;70900;51.798;10.954;2023-10-19T12:49:37;54.96;40.54;68.02;;
81493;Laerm;70900;51.798;10.954;2023-10-19T12:52:03;51.07;41.61;66.07;;
81493;Laerm;70900;51.798;10.954;2023-10-19T12:54:29;58.25;40.59;72.47;;
81493;Laerm;70900;51.798;10.954;2023-10-19T12:56:54;59.60;42.56;70.90;;
81493;Laerm;70900;51.798;10.954;2023-10-19T12:59:20;56.91;40.70;68.33;;
81493;Laerm;70900;51.798;10.954;2023-10-19T13:01:45;54.12;40.82;67.90;;
81493;Laerm;70900;51.798;10.954;2023-10-19T13:04:14;59.55;41.84;79.80;;
81493;Laerm;70900;51.798;10.954;2023-10-19T13:06:41;59.70;40.98;72.24;;
81493;Laerm;70900;51.798;10.954;2023-10-19T13:09:07;53.82;40.73;67.10;;
81493;Laerm;70900;51.798;10.954;2023-10-19T13:11:34;52.06;40.83;65.91;;
81493;Laerm;70900;51.798;10.954;2023-10-19T13:13:59;52.56;38.42;67.05;;
81493;Laerm;70900;51.798;10.954;2023-10-19T13:16:26;56.18;42.02;68.06;;
81493;Laerm;70900;51.798;10.954;2023-10-19T13:18:52;53.99;41.78;67.08;;
81493;Laerm;70900;51.798;10.954;2023-10-19T13:21:18;61.64;43.05;76.81;;
81493;Laerm;70900;51.798;10.954;2023-10-19T13:23:47;55.62;40.11;71.75;;
81493;Laerm;70900;51.798;10.954;2023-10-19T13:26:13;57.52;42.92;68.71;;
81493;Laerm;70900;51.798;10.954;2023-10-19T13:28:45;56.20;41.64;71.32;;
81493;Laerm;70900;51.798;10.954;2023-10-19T13:31:11;55.80;41.67;67.84;;
81493;Laerm;70900;51.798;10.954;2023-10-19T13:33:41;59.13;42.48;72.02;;
81493;Laerm;70900;51.798;10.954;2023-10-19T13:36:10;54.77;42.64;70.99;;
81493;Laerm;70900;51.798;10.954;2023-10-19T13:38:36;58.55;41.77;69.69;;
81493;Laerm;70900;51.798;10.954;2023-10-19T13:41:04;56.44;43.53;67.26;;